createdAt,value
2018-05-16T00:00:38.323Z,13.23
2018-05-16T00:03:05.846Z,13.63
2018-05-16T00:05:33.390Z,13.00
2018-05-16T00:08:00.894Z,12.50
2018-05-16T00:10:28.397Z,13.00
2018-05-16T00:12:55.929Z,13.33
2018-05-16T00:15:23.446Z,13.37
2018-05-16T00:17:50.988Z,13.43
2018-05-16T00:20:18.630Z,13.03
2018-05-16T00:22:46.142Z,13.57
2018-05-16T00:25:13.686Z,13.70
2018-05-16T00:27:41.206Z,13.10
2018-05-16T00:30:08.807Z,12.70
2018-05-16T00:32:36.318Z,13.37
2018-05-16T00:35:03.841Z,13.10
2018-05-16T00:37:31.437Z,13.40
2018-05-16T00:39:58.962Z,14.07
2018-05-16T00:42:26.490Z,13.50
2018-05-16T00:44:54.055Z,14.23
2018-05-16T00:47:21.574Z,13.50
2018-05-16T00:49:49.068Z,14.80
2018-05-16T00:52:17.495Z,14.47
2018-05-16T00:54:44.999Z,13.83
2018-05-16T00:57:12.562Z,14.47
2018-05-16T00:59:40.122Z,14.90
2018-05-16T01:02:07.666Z,15.37
2018-05-16T01:04:35.191Z,14.27
2018-05-16T01:07:02.729Z,14.30
2018-05-16T01:09:30.257Z,14.20
2018-05-16T01:11:57.868Z,14.50
2018-05-16T01:14:25.441Z,14.60
2018-05-16T01:16:53.249Z,14.60
2018-05-16T01:19:21.028Z,14.73
2018-05-16T01:21:48.862Z,15.10
2018-05-16T01:24:16.414Z,15.67
2018-05-16T01:26:43.957Z,16.50
2018-05-16T01:29:11.533Z,15.80
2018-05-16T01:31:39.365Z,15.63
2018-05-16T01:34:06.949Z,16.03
2018-05-16T01:36:34.489Z,16.90
2018-05-16T01:39:02.023Z,18.30
2018-05-16T01:41:29.612Z,18.33
2018-05-16T01:43:57.174Z,17.40
2018-05-16T01:46:24.678Z,16.53
2018-05-16T01:49:03.977Z,16.63
2018-05-16T01:51:31.490Z,17.73
2018-05-16T01:53:58.990Z,17.20
2018-05-16T01:56:26.501Z,18.53
2018-05-16T01:58:53.994Z,17.93
2018-05-16T02:01:21.529Z,17.37
2018-05-16T02:03:49.053Z,18.00
2018-05-16T02:06:16.566Z,18.47
2018-05-16T02:08:44.066Z,17.70
2018-05-16T02:11:11.619Z,18.97
2018-05-16T02:13:39.166Z,17.57
2018-05-16T02:16:06.689Z,19.13
2018-05-16T02:18:34.269Z,19.13
2018-05-16T02:21:01.803Z,18.57
2018-05-16T02:23:29.318Z,17.83
2018-05-16T02:25:56.857Z,19.87
2018-05-16T02:28:24.462Z,18.93
2018-05-16T02:30:52.002Z,19.17
2018-05-16T02:33:19.558Z,19.43
2018-05-16T02:35:47.117Z,18.57
2018-05-16T02:38:14.618Z,19.43
2018-05-16T02:40:42.141Z,18.43
2018-05-16T02:43:09.662Z,18.47
2018-05-16T02:45:37.173Z,20.57
2018-05-16T02:48:04.718Z,18.67
2018-05-16T02:50:32.219Z,18.17
2018-05-16T02:52:59.781Z,19.43
2018-05-16T02:55:27.309Z,18.77
2018-05-16T02:57:54.811Z,17.57
2018-05-16T03:00:22.391Z,18.63
2018-05-16T03:02:49.914Z,18.37
2018-05-16T03:05:17.457Z,18.67
2018-05-16T03:07:44.966Z,18.23
2018-05-16T03:10:12.524Z,18.93
2018-05-16T03:12:40.043Z,18.67
2018-05-16T03:15:07.543Z,18.87
2018-05-16T03:17:35.147Z,18.57
2018-05-16T03:20:02.672Z,18.73
2018-05-16T03:22:30.175Z,18.47
2018-05-16T03:24:57.754Z,18.33
2018-05-16T03:27:25.252Z,18.83
2018-05-16T03:29:52.773Z,18.27
2018-05-16T03:32:21.312Z,18.37
2018-05-16T03:34:48.825Z,18.93
2018-05-16T03:37:16.313Z,18.47
2018-05-16T03:39:43.864Z,18.20
2018-05-16T03:42:11.382Z,18.90
2018-05-16T03:44:38.907Z,19.40
2018-05-16T03:47:06.446Z,18.63
2018-05-16T03:49:33.953Z,18.60
2018-05-16T03:52:01.549Z,19.47
2018-05-16T03:54:29.021Z,19.10
2018-05-16T03:56:56.563Z,18.97
2018-05-16T03:59:35.965Z,19.13
2018-05-16T04:02:15.325Z,19.93
2018-05-16T04:04:42.914Z,19.47
2018-05-16T04:07:10.421Z,20.03
2018-05-16T04:09:37.960Z,19.47
2018-05-16T04:12:05.514Z,19.93
2018-05-16T04:14:33.034Z,19.83
2018-05-16T04:17:00.631Z,21.37
2018-05-16T04:19:28.166Z,20.47
2018-05-16T04:21:55.673Z,21.40
2018-05-16T04:24:23.211Z,20.90
2018-05-16T04:26:50.745Z,22.67
2018-05-16T04:29:18.298Z,21.23
2018-05-16T04:31:45.862Z,21.67
2018-05-16T04:34:13.416Z,22.40
2018-05-16T04:36:40.955Z,23.10
2018-05-16T04:39:08.498Z,21.63
2018-05-16T04:41:36.038Z,22.13
2018-05-16T04:44:03.563Z,22.77
2018-05-16T04:46:31.077Z,22.67
2018-05-16T04:48:58.632Z,22.80
2018-05-16T04:51:26.156Z,22.53
2018-05-16T04:53:53.705Z,24.03
2018-05-16T04:56:21.278Z,22.63
2018-05-16T04:58:48.789Z,22.17
2018-05-16T05:01:16.338Z,23.47
2018-05-16T05:03:43.911Z,22.77
2018-05-16T05:06:11.447Z,22.67
2018-05-16T05:08:38.966Z,22.70
2018-05-16T05:11:06.514Z,22.93
2018-05-16T05:13:34.028Z,21.57
2018-05-16T05:16:01.548Z,21.40
2018-05-16T05:18:29.181Z,21.23
2018-05-16T05:20:56.625Z,21.33
2018-05-16T05:23:24.143Z,21.43
2018-05-16T05:25:51.702Z,22.17
2018-05-16T05:28:19.214Z,22.87
2018-05-16T05:30:46.760Z,22.50
2018-05-16T05:33:14.356Z,22.33
2018-05-16T05:35:41.989Z,22.00
2018-05-16T05:38:09.506Z,22.60
2018-05-16T05:40:37.059Z,21.43
2018-05-16T05:43:04.604Z,22.50
2018-05-16T05:45:32.126Z,21.27
2018-05-16T05:47:59.697Z,21.17
2018-05-16T05:50:27.213Z,22.00
2018-05-16T05:52:54.770Z,21.97
2018-05-16T05:55:22.339Z,20.67
2018-05-16T05:57:49.832Z,19.87
2018-05-16T06:00:17.358Z,21.03
2018-05-16T06:02:44.985Z,20.03
2018-05-16T06:05:12.561Z,18.67
2018-05-16T06:07:40.146Z,18.37
2018-05-16T06:10:07.757Z,18.07
2018-05-16T06:12:35.279Z,17.33
2018-05-16T06:15:02.842Z,15.50
2018-05-16T06:17:30.395Z,15.57
2018-05-16T06:19:57.901Z,15.93
2018-05-16T06:22:25.441Z,14.87
2018-05-16T06:24:53.016Z,14.80
2018-05-16T06:27:20.624Z,14.40
2018-05-16T06:29:48.092Z,13.47
2018-05-16T06:32:15.660Z,13.07
2018-05-16T06:34:43.203Z,10.60
2018-05-16T06:37:10.782Z,10.33
2018-05-16T06:39:38.354Z,11.17
2018-05-16T06:42:05.880Z,10.87
2018-05-16T06:44:33.451Z,10.87
2018-05-16T06:47:01.010Z,9.97
2018-05-16T06:49:28.519Z,9.10
2018-05-16T06:51:56.009Z,9.20
2018-05-16T06:54:23.554Z,8.93
2018-05-16T06:56:51.073Z,8.30
2018-05-16T06:59:18.564Z,9.00
2018-05-16T07:01:46.176Z,9.13
2018-05-16T07:04:13.633Z,10.10
2018-05-16T07:06:41.124Z,7.53
2018-05-16T07:09:08.644Z,6.97
2018-05-16T07:11:36.153Z,7.13
2018-05-16T07:14:03.654Z,7.03
2018-05-16T07:16:31.193Z,7.20
2018-05-16T07:18:58.709Z,6.93
2018-05-16T07:21:26.208Z,6.27
2018-05-16T07:23:53.717Z,5.87
2018-05-16T07:26:21.201Z,5.83
2018-05-16T07:28:48.711Z,5.70
2018-05-16T07:31:16.273Z,6.03
2018-05-16T07:33:43.818Z,6.30
2018-05-16T07:36:12.116Z,6.03
2018-05-16T07:38:39.656Z,6.30
2018-05-16T07:41:07.312Z,6.00
2018-05-16T07:43:34.709Z,5.80
2018-05-16T07:46:02.222Z,5.67
2018-05-16T07:48:29.701Z,5.77
2018-05-16T07:50:57.189Z,5.57
2018-05-16T07:53:24.698Z,5.30
2018-05-16T07:55:52.211Z,5.10
2018-05-16T07:58:19.705Z,5.30
2018-05-16T08:00:47.213Z,5.30
2018-05-16T08:03:14.705Z,4.87
2018-05-16T08:05:42.190Z,4.97
2018-05-16T08:08:09.697Z,4.80
2018-05-16T08:10:37.186Z,5.10
2018-05-16T08:13:04.673Z,4.70
2018-05-16T08:15:32.181Z,5.33
2018-05-16T08:17:59.675Z,5.17
2018-05-16T08:20:27.170Z,4.40
2018-05-16T08:22:54.687Z,4.70
2018-05-16T08:25:22.181Z,5.37
2018-05-16T08:27:49.673Z,4.83
2018-05-16T08:30:17.191Z,4.83
2018-05-16T08:32:44.689Z,5.00
2018-05-16T08:35:12.173Z,4.50
2018-05-16T08:37:39.690Z,4.60
2018-05-16T08:40:07.182Z,4.63
2018-05-16T08:42:34.678Z,4.73
2018-05-16T08:45:02.232Z,5.30
2018-05-16T08:47:29.705Z,4.10
2018-05-16T08:49:57.848Z,4.90
2018-05-16T08:52:25.369Z,4.50
2018-05-16T08:54:52.863Z,5.27
2018-05-16T08:57:20.414Z,5.30
2018-05-16T08:59:47.931Z,5.87
2018-05-16T09:02:15.459Z,5.70
2018-05-16T09:04:43.020Z,6.53
2018-05-16T09:07:10.541Z,5.50
2018-05-16T09:09:38.034Z,5.93
2018-05-16T09:12:05.527Z,6.30
2018-05-16T09:14:33.042Z,6.20
2018-05-16T09:17:00.530Z,6.20
2018-05-16T09:19:28.019Z,7.03
2018-05-16T09:21:55.546Z,7.70
2018-05-16T09:24:23.038Z,8.07
2018-05-16T09:26:50.534Z,8.23
2018-05-16T09:29:18.051Z,8.17
2018-05-16T09:31:45.552Z,8.63
2018-05-16T09:34:13.037Z,9.90
2018-05-16T09:36:40.553Z,9.03
2018-05-16T09:39:08.046Z,7.90
2018-05-16T09:41:35.532Z,7.80
2018-05-16T09:44:03.049Z,6.63
2018-05-16T09:46:30.534Z,8.37
2018-05-16T09:48:58.039Z,9.77
2018-05-16T09:51:25.566Z,8.83
2018-05-16T09:53:53.075Z,7.77
2018-05-16T09:56:22.305Z,7.10
2018-05-16T09:58:49.814Z,6.33
2018-05-16T10:01:17.314Z,5.67
2018-05-16T10:03:44.815Z,6.00
2018-05-16T10:06:12.338Z,6.30
2018-05-16T10:08:39.829Z,8.40
2018-05-16T10:11:07.323Z,8.27
2018-05-16T10:13:34.850Z,8.90
2018-05-16T10:16:02.374Z,8.43
2018-05-16T10:18:29.859Z,8.07
2018-05-16T10:20:57.379Z,9.10
2018-05-16T10:23:24.865Z,6.23
2018-05-16T10:25:52.349Z,6.07
2018-05-16T10:28:19.866Z,6.23
2018-05-16T10:30:47.358Z,5.17
2018-05-16T10:33:14.859Z,6.33
2018-05-16T10:35:42.382Z,5.70
2018-05-16T10:38:09.866Z,6.13
2018-05-16T10:40:37.363Z,6.33
2018-05-16T10:43:04.878Z,5.67
2018-05-16T10:45:32.374Z,5.70
2018-05-16T10:47:59.867Z,6.00
2018-05-16T10:50:27.439Z,5.20
2018-05-16T10:52:54.901Z,5.30
2018-05-16T10:55:22.403Z,4.90
2018-05-16T10:57:49.926Z,5.50
2018-05-16T11:00:17.408Z,6.67
2018-05-16T11:02:44.912Z,13.03
2018-05-16T11:05:12.426Z,8.17
2018-05-16T11:07:39.935Z,10.60
2018-05-16T11:10:07.421Z,5.20
2018-05-16T11:12:35.972Z,17.77
2018-05-16T11:15:03.457Z,7.67
2018-05-16T11:17:30.957Z,15.43
2018-05-16T11:19:58.483Z,8.83
2018-05-16T11:22:26.006Z,13.50
2018-05-16T11:24:53.504Z,7.13
2018-05-16T11:27:21.013Z,4.10
2018-05-16T11:29:48.523Z,5.60
2018-05-16T11:32:16.077Z,10.40
2018-05-16T11:34:43.590Z,6.43
2018-05-16T11:37:11.088Z,12.50
2018-05-16T11:39:38.595Z,16.97
2018-05-16T11:42:06.110Z,7.63
2018-05-16T11:44:33.602Z,9.63
2018-05-16T11:47:01.089Z,6.40
2018-05-16T11:49:28.693Z,10.10
2018-05-16T11:51:56.161Z,6.10
2018-05-16T11:54:23.654Z,9.77
2018-05-16T11:56:51.168Z,7.17
2018-05-16T11:59:18.680Z,7.70
2018-05-16T12:01:46.171Z,9.03
2018-05-16T12:04:13.682Z,6.93
2018-05-16T12:06:41.165Z,6.00
2018-05-16T12:09:08.753Z,6.67
2018-05-16T12:11:37.145Z,6.93
2018-05-16T12:14:04.633Z,4.47
2018-05-16T12:16:32.179Z,6.73
2018-05-16T12:18:59.702Z,10.97
2018-05-16T12:21:27.188Z,8.03
2018-05-16T12:23:54.674Z,8.67
2018-05-16T12:26:22.230Z,5.77
2018-05-16T12:28:49.773Z,7.40
2018-05-16T12:31:17.273Z,5.50
2018-05-16T12:33:44.814Z,5.70
2018-05-16T12:36:12.297Z,4.90
2018-05-16T12:38:39.797Z,4.70
2018-05-16T12:41:07.320Z,4.60
2018-05-16T12:43:34.805Z,5.00
2018-05-16T12:46:02.293Z,5.03
2018-05-16T12:48:29.803Z,5.50
2018-05-16T12:50:57.301Z,6.83
2018-05-16T12:53:24.822Z,5.90
2018-05-16T12:55:52.346Z,5.30
2018-05-16T12:58:19.843Z,5.40
2018-05-16T13:00:47.330Z,4.80
2018-05-16T13:03:14.846Z,5.07
2018-05-16T13:05:42.333Z,5.40
2018-05-16T13:08:09.821Z,5.80
2018-05-16T13:10:37.337Z,5.57
2018-05-16T13:13:04.933Z,6.47
2018-05-16T13:15:32.345Z,3.83
2018-05-16T13:17:59.872Z,4.63
2018-05-16T13:20:27.376Z,5.63
2018-05-16T13:22:54.874Z,6.90
2018-05-16T13:25:22.391Z,8.30
2018-05-16T13:27:49.877Z,6.90
2018-05-16T13:30:17.371Z,6.93
2018-05-16T13:32:44.876Z,8.10
2018-05-16T13:35:12.367Z,8.43
2018-05-16T13:37:39.859Z,9.87
2018-05-16T13:40:07.381Z,13.90
2018-05-16T13:42:34.926Z,19.17
2018-05-16T13:45:02.435Z,17.10
2018-05-16T13:47:30.033Z,14.37
2018-05-16T13:49:57.520Z,13.20
2018-05-16T13:52:25.012Z,11.07
2018-05-16T13:54:52.537Z,14.60
2018-05-16T13:57:20.029Z,11.10
2018-05-16T13:59:47.518Z,10.50
2018-05-16T14:02:15.062Z,11.33
2018-05-16T14:04:42.552Z,9.70
2018-05-16T14:07:10.047Z,12.50
2018-05-16T14:09:37.557Z,10.53
2018-05-16T14:12:05.055Z,13.50
2018-05-16T14:14:32.558Z,11.73
2018-05-16T14:17:00.077Z,12.37
2018-05-16T14:19:27.578Z,11.77
2018-05-16T14:21:55.065Z,10.57
2018-05-16T14:24:22.614Z,10.70
2018-05-16T14:26:50.105Z,11.97
2018-05-16T14:29:17.597Z,10.03
2018-05-16T14:31:45.111Z,9.63
2018-05-16T14:34:12.605Z,9.93
2018-05-16T14:36:40.106Z,10.13
2018-05-16T14:39:07.616Z,10.47
2018-05-16T14:41:36.046Z,10.73
2018-05-16T14:44:03.541Z,11.87
2018-05-16T14:46:31.053Z,11.40
2018-05-16T14:48:58.551Z,10.43
2018-05-16T14:51:26.054Z,11.13
2018-05-16T14:53:54.514Z,10.37
2018-05-16T14:56:22.030Z,11.53
2018-05-16T14:58:49.525Z,10.00
2018-05-16T15:01:17.044Z,10.70
2018-05-16T15:03:44.541Z,10.30
2018-05-16T15:06:12.044Z,11.13
2018-05-16T15:08:39.572Z,10.70
2018-05-16T15:11:07.091Z,10.50
2018-05-16T15:13:34.586Z,11.90
2018-05-16T15:16:02.210Z,11.60
2018-05-16T15:18:29.714Z,10.37
2018-05-16T15:20:57.219Z,9.17
2018-05-16T15:23:24.881Z,8.70
2018-05-16T15:25:52.416Z,9.60
2018-05-16T15:28:19.910Z,9.20
2018-05-16T15:30:47.424Z,8.30
2018-05-16T15:33:14.909Z,8.43
2018-05-16T15:35:42.397Z,8.33
2018-05-16T15:38:09.921Z,9.13
2018-05-16T15:40:37.419Z,8.37
2018-05-16T15:43:04.927Z,8.37
2018-05-16T15:45:32.462Z,9.13
2018-05-16T15:47:59.968Z,10.37
2018-05-16T15:50:27.489Z,10.67
2018-05-16T15:52:55.013Z,10.80
2018-05-16T15:55:22.510Z,10.10
2018-05-16T15:57:50.005Z,11.03
2018-05-16T16:00:17.546Z,10.57
2018-05-16T16:02:45.038Z,8.80
2018-05-16T16:05:12.535Z,8.37
2018-05-16T16:07:40.058Z,8.33
2018-05-16T16:10:07.557Z,9.20
2018-05-16T16:12:35.058Z,8.93
2018-05-16T16:15:02.604Z,9.03
2018-05-16T16:17:30.113Z,9.80
2018-05-16T16:19:57.626Z,9.40
2018-05-16T16:22:25.154Z,9.13
2018-05-16T16:24:52.652Z,9.17
2018-05-16T16:27:20.155Z,9.77
2018-05-16T16:29:47.679Z,8.93
2018-05-16T16:32:15.180Z,8.47
2018-05-16T16:34:42.686Z,8.97
2018-05-16T16:37:10.204Z,9.70
2018-05-16T16:39:37.697Z,8.80
2018-05-16T16:42:05.193Z,9.27
2018-05-16T16:44:32.714Z,8.67
2018-05-16T16:47:00.206Z,8.60
2018-05-16T16:49:27.702Z,8.43
2018-05-16T16:51:55.222Z,8.17
2018-05-16T16:54:22.751Z,8.50
2018-05-16T17:02:51.580Z,9.20
2018-05-16T17:08:00.548Z,8.43
2018-05-16T17:10:28.110Z,9.20
2018-05-16T17:12:55.649Z,8.30
2018-05-16T17:15:23.253Z,8.47
2018-05-16T17:17:57.109Z,8.97
2018-05-16T17:20:29.481Z,9.10
2018-05-16T17:29:27.756Z,8.50
2018-05-16T17:31:59.843Z,9.40
2018-05-16T17:34:37.400Z,9.40
2018-05-16T17:37:05.118Z,9.40
2018-05-16T17:39:32.679Z,9.47
2018-05-16T17:42:02.481Z,10.57
2018-05-16T17:44:30.018Z,9.73
2018-05-16T17:47:04.389Z,10.17
2018-05-16T17:52:26.342Z,10.73
2018-05-16T17:54:54.473Z,13.10
2018-05-16T17:57:21.986Z,12.33
2018-05-16T17:59:49.502Z,11.63
2018-05-16T18:02:17.261Z,13.80
2018-05-16T18:04:45.146Z,14.07
2018-05-16T18:07:12.961Z,13.63
2018-05-16T18:09:40.789Z,13.37
2018-05-16T18:12:08.909Z,13.50
2018-05-16T18:17:38.689Z,13.23
2018-05-16T18:20:06.207Z,13.87
2018-05-16T18:22:33.702Z,13.50
2018-05-16T18:25:01.194Z,11.73
2018-05-16T18:27:28.731Z,12.77
2018-05-16T18:29:56.220Z,13.73
2018-05-16T18:32:23.714Z,13.70
2018-05-16T18:34:51.229Z,15.40
2018-05-16T18:37:18.725Z,16.03
2018-05-16T18:39:46.226Z,16.70
2018-05-16T18:42:13.745Z,13.97
2018-05-16T18:44:41.265Z,14.90
2018-05-16T18:47:08.764Z,15.33
2018-05-16T18:49:36.277Z,15.20
2018-05-16T18:52:03.769Z,15.43
2018-05-16T18:54:31.270Z,14.97
2018-05-16T18:56:58.806Z,15.70
2018-05-16T18:59:26.306Z,18.53
2018-05-16T19:01:53.829Z,18.27
2018-05-16T19:04:21.363Z,18.20
2018-05-16T19:06:48.848Z,16.10
2018-05-16T19:09:16.344Z,17.27
2018-05-16T19:11:43.861Z,16.60
2018-05-16T19:14:11.358Z,16.53
2018-05-16T19:16:38.875Z,25.13
2018-05-16T19:19:06.397Z,22.60
2018-05-16T19:21:33.899Z,19.17
2018-05-16T19:24:01.401Z,16.97
2018-05-16T19:26:28.922Z,17.03
2018-05-16T19:28:56.418Z,18.67
2018-05-16T19:31:23.977Z,17.73
2018-05-16T19:33:51.506Z,18.37
2018-05-16T19:36:19.002Z,19.37
2018-05-16T19:38:46.507Z,18.53
2018-05-16T19:41:14.017Z,19.30
2018-05-16T19:43:41.502Z,19.03
2018-05-16T19:46:09.088Z,19.47
2018-05-16T19:48:36.538Z,19.37
2018-05-16T19:51:04.038Z,18.17
2018-05-16T19:53:31.597Z,19.70
2018-05-16T19:55:59.257Z,19.47
2018-05-16T19:58:26.864Z,19.23
2018-05-16T20:00:56.244Z,19.10
2018-05-16T20:03:23.884Z,20.20
2018-05-16T20:05:51.357Z,19.90
2018-05-16T20:08:18.871Z,21.13
2018-05-16T20:10:47.383Z,21.67
2018-05-16T20:13:14.909Z,21.90
2018-05-16T20:15:42.414Z,22.60
2018-05-16T20:18:10.437Z,22.17
2018-05-16T20:20:39.184Z,21.17
2018-05-16T20:23:06.702Z,21.40
2018-05-16T20:25:34.376Z,20.87
2018-05-16T20:28:01.917Z,22.07
2018-05-16T20:30:29.492Z,21.83
2018-05-16T20:32:57.036Z,21.90
2018-05-16T20:35:25.031Z,22.70
2018-05-16T20:37:52.565Z,21.60
2018-05-16T20:40:20.122Z,21.83
2018-05-16T20:42:47.638Z,25.60
2018-05-16T20:45:15.244Z,30.47
2018-05-16T20:47:42.746Z,28.33
2018-05-16T20:50:10.314Z,26.30
2018-05-16T20:52:37.862Z,24.67
2018-05-16T20:55:05.411Z,25.93
2018-05-16T20:57:33.001Z,24.37
2018-05-16T21:00:00.734Z,25.97
2018-05-16T21:02:28.313Z,25.10
2018-05-16T21:04:55.837Z,26.07
2018-05-16T21:07:23.650Z,23.67
2018-05-16T21:09:52.189Z,23.30
2018-05-16T21:12:20.480Z,25.23
2018-05-16T21:14:48.028Z,24.70
2018-05-16T21:17:15.587Z,24.73
2018-05-16T21:19:43.101Z,26.17
2018-05-16T21:22:10.628Z,25.30
2018-05-16T21:24:38.207Z,24.87
2018-05-16T21:27:05.731Z,24.70
2018-05-16T21:29:33.253Z,24.90
2018-05-16T21:32:00.853Z,22.07
2018-05-16T21:34:28.394Z,21.90
2018-05-16T21:36:55.913Z,22.87
2018-05-16T21:39:23.463Z,22.77
2018-05-16T21:41:50.991Z,22.40
2018-05-16T21:44:18.527Z,22.70
2018-05-16T21:46:46.178Z,23.73
2018-05-16T21:49:13.700Z,24.17
2018-05-16T21:51:42.027Z,23.50
2018-05-16T21:54:09.668Z,23.97
2018-05-16T21:56:38.161Z,24.03
2018-05-16T21:59:05.691Z,25.13
2018-05-16T22:01:33.230Z,24.93
2018-05-16T22:04:00.774Z,25.93
2018-05-16T22:06:28.290Z,25.57
2018-05-16T22:08:55.842Z,25.00
2018-05-16T22:11:23.341Z,27.17
2018-05-16T22:13:50.871Z,27.47
2018-05-16T22:16:18.421Z,26.87
2018-05-16T22:18:45.947Z,27.90
2018-05-16T22:21:13.506Z,28.20
2018-05-16T22:23:41.042Z,29.43
2018-05-16T22:26:08.601Z,28.37
2018-05-16T22:28:36.160Z,27.87
2018-05-16T22:31:09.303Z,30.17
2018-05-16T22:33:42.256Z,28.93
2018-05-16T22:36:15.505Z,31.57
2018-05-16T22:38:48.770Z,31.30
2018-05-16T22:41:21.803Z,32.67
2018-05-16T22:46:51.232Z,33.27
2018-05-16T22:49:18.762Z,33.20
2018-05-16T22:51:46.270Z,33.37
2018-05-16T22:54:13.818Z,34.97
2018-05-16T22:56:41.342Z,33.83
2018-05-16T22:59:08.864Z,33.87
2018-05-16T23:01:36.421Z,38.20
2018-05-16T23:04:03.932Z,34.33
2018-05-16T23:06:31.453Z,35.57
2018-05-16T23:08:58.986Z,32.30
2018-05-16T23:11:26.497Z,33.27
2018-05-16T23:13:53.990Z,31.03
2018-05-16T23:16:21.539Z,31.50
2018-05-16T23:18:49.041Z,30.97
2018-05-16T23:21:16.569Z,28.13
2018-05-16T23:23:44.107Z,27.73
2018-05-16T23:26:11.610Z,28.80
2018-05-16T23:28:39.097Z,28.73
2018-05-16T23:31:06.629Z,31.43
2018-05-16T23:33:34.149Z,31.80
2018-05-16T23:36:01.645Z,31.30
2018-05-16T23:38:29.190Z,31.47
2018-05-16T23:40:56.787Z,30.47
2018-05-16T23:43:24.301Z,31.43
2018-05-16T23:45:51.826Z,30.27
2018-05-16T23:48:19.999Z,31.17
2018-05-16T23:50:47.570Z,31.00
2018-05-16T23:53:15.053Z,33.33
2018-05-16T23:55:42.586Z,34.67
2018-05-16T23:58:10.093Z,35.87
